This is the latest recevied weather packets stored in our database for station/object SV9TNF-4. If no packets are shown the sender has not sent any weather packets the latest 1 day(s).
| Time | Temp. | Humidity | Pressure | Rain* | Wind** | Luminosity | Snow |
|---|---|---|---|---|---|---|---|
| 1777993504 | 22.22° C | 50% | 1018.3 hPa | 0 mm | 12.96 m/s, 302° | - | - |
| 1777992603 | 22.22° C | 50% | 1018.3 hPa | 0 mm | 12.96 m/s, 302° | - | - |
| 1777992003 | 21.67° C | 51% | 1018.3 hPa | 0 mm | 17.88 m/s, 297° | - | - |
| 1777991704 | 21.67° C | 51% | 1018.3 hPa | 0 mm | 17.88 m/s, 297° | - | - |
| 1777991403 | 22.22° C | 47% | 1018.3 hPa | 0 mm | 11.18 m/s, 241° | - | - |
| 1777990803 | 22.22° C | 47% | 1018.3 hPa | 0 mm | 11.18 m/s, 241° | - | - |
| 1777990503 | 22.22° C | 47% | 1018.3 hPa | 0 mm | 11.18 m/s, 241° | - | - |
| 1777986602 | 22.22° C | 48% | 1018.6 hPa | 0 mm | 17.88 m/s, 290° | - | - |
| 1777986302 | 22.22° C | 48% | 1018.6 hPa | 0 mm | 17.88 m/s, 290° | - | - |
| 1777984501 | 22.22° C | 48% | 1018.6 hPa | 0 mm | 17.88 m/s, 290° | - | - |
| 1777983901 | 22.22° C | 48% | 1018.6 hPa | 0 mm | 17.88 m/s, 290° | - | - |
| 1777978982 | 20° C | 52% | 1019.3 hPa | 0 mm | 12.96 m/s, 108° | - | - |
| 1777978682 | 20° C | 52% | 1019.3 hPa | 0 mm | 12.96 m/s, 108° | - | - |
| 1777978382 | 20° C | 52% | 1019.3 hPa | 0 mm | 12.96 m/s, 108° | - | - |
| 1777978082 | 20° C | 52% | 1019.3 hPa | 0 mm | 12.96 m/s, 108° | - | - |
| 1777977782 | 20° C | 52% | 1019.3 hPa | 0 mm | 12.96 m/s, 108° | - | - |
| 1777977482 | 20° C | 52% | 1019.3 hPa | 0 mm | 12.96 m/s, 108° | - | - |
| 1777977182 | 20° C | 52% | 1019.3 hPa | 0 mm | 12.96 m/s, 108° | - | - |
| 1777976882 | 20° C | 52% | 1019.3 hPa | 0 mm | 12.96 m/s, 108° | - | - |
| 1777976582 | 20° C | 52% | 1019.3 hPa | 0 mm | 12.96 m/s, 108° | - | - |
| 1777975081 | 20° C | 53% | 1019.6 hPa | 0 mm | 11.18 m/s, 101° | - | - |
| 1777974781 | 20° C | 53% | 1019.6 hPa | 0 mm | 11.18 m/s, 101° | - | - |
| 1777974481 | 20° C | 53% | 1019.6 hPa | 0 mm | 11.18 m/s, 101° | - | - |
| 1777974181 | 20° C | 53% | 1019.6 hPa | 0 mm | 11.18 m/s, 101° | - | - |
| 1777973880 | 20° C | 53% | 1019.6 hPa | 0 mm | 11.18 m/s, 101° | - | - |
* Rain latest hour (hover to see other rain measurements)
** Current wind speed in m/s (hover to see current wind gust speed)